Time;durP1;ratioP1;P1;durP2;ratioP2;P2;SDS_P1;SDS_P2;PMS_P1;PMS_P2;Temp;Humidity;BMP_temperature;BMP_pressure;BME280_temperature;BME280_humidity;BME280_pressure;Samples;Min_cycle;Max_cycle;Signal;HPM_P1;HPM_P2
2023/10/13 00:00:40;;;;;;;74.20;66.30;;;;;;;;;;5091703;28;20457;-74
2023/10/13 00:03:14;;;;;;;80.83;72.00;;;;;;;;;;5091357;28;20491;-74
2023/10/13 00:05:42;;;;;;;88.50;76.00;;;;;;;;;;5090222;28;20470;-73
2023/10/13 00:08:10;;;;;;;83.53;75.43;;;;;;;;;;5091539;28;20464;-74
2023/10/13 00:10:38;;;;;;;82.90;74.93;;;;;;;;;;5091436;28;20445;-75
2023/10/13 00:13:14;;;;;;;78.63;70.80;;;;;;;;;;5091300;28;20451;-73
2023/10/13 00:15:46;;;;;;;83.90;73.77;;;;;;;;;;5091115;28;20493;-74
2023/10/13 00:18:13;;;;;;;83.30;74.77;;;;;;;;;;5090649;28;20459;-74
2023/10/13 00:20:47;;;;;;;93.00;83.40;;;;;;;;;;5091070;28;21247;-74
2023/10/13 00:23:15;;;;;;;87.20;79.10;;;;;;;;;;5091038;28;20461;-74
2023/10/13 00:25:49;;;;;;;87.97;78.70;;;;;;;;;;5090673;28;20535;-74
2023/10/13 00:28:23;;;;;;;86.13;75.90;;;;;;;;;;5093132;28;20472;-74
2023/10/13 00:30:52;;;;;;;84.53;75.60;;;;;;;;;;5095395;28;20432;-74
2023/10/13 00:33:22;;;;;;;90.77;82.07;;;;;;;;;;5095304;28;20423;-74
2023/10/13 00:35:52;;;;;;;82.20;74.57;;;;;;;;;;5094911;28;20444;-74
2023/10/13 00:38:19;;;;;;;84.67;76.07;;;;;;;;;;5094647;28;20821;-74
2023/10/13 00:40:52;;;;;;;83.87;75.13;;;;;;;;;;5095196;28;20550;-74
2023/10/13 00:43:38;;;;;;;82.07;75.00;;;;;;;;;;5094987;28;20480;-74
2023/10/13 00:46:08;;;;;;;84.80;76.70;;;;;;;;;;5094707;28;20396;-74
2023/10/13 00:48:42;;;;;;;85.67;77.30;;;;;;;;;;5094294;28;20456;-74
2023/10/13 00:51:16;;;;;;;79.90;72.30;;;;;;;;;;5094950;28;20924;-74
2023/10/13 00:53:44;;;;;;;81.60;73.40;;;;;;;;;;5094312;28;20892;-74
2023/10/13 00:56:18;;;;;;;81.40;74.00;;;;;;;;;;5093965;28;20453;-74
2023/10/13 00:58:46;;;;;;;88.00;79.80;;;;;;;;;;5093823;28;20464;-74
2023/10/13 01:01:22;;;;;;;83.43;75.70;;;;;;;;;;5094344;28;20548;-74
2023/10/13 01:03:49;;;;;;;83.27;75.50;;;;;;;;;;5093785;28;20472;-74
2023/10/13 01:06:18;;;;;;;79.27;71.53;;;;;;;;;;5094414;28;20825;-73
2023/10/13 01:08:45;;;;;;;82.37;73.97;;;;;;;;;;5093831;28;20464;-74
2023/10/13 01:11:14;;;;;;;85.93;77.27;;;;;;;;;;5094349;28;20560;-74
2023/10/13 01:13:41;;;;;;;83.20;75.30;;;;;;;;;;5094262;28;20445;-74
2023/10/13 01:16:08;;;;;;;80.13;72.57;;;;;;;;;;5093925;28;20442;-74
2023/10/13 01:18:40;;;;;;;84.40;75.00;;;;;;;;;;5093511;28;20445;-74
2023/10/13 01:21:09;;;;;;;80.73;73.10;;;;;;;;;;5094255;28;20432;-74
2023/10/13 01:23:38;;;;;;;82.47;74.83;;;;;;;;;;5094097;28;20463;-74
2023/10/13 01:26:06;;;;;;;79.97;72.73;;;;;;;;;;5093702;28;20460;-74
2023/10/13 01:28:44;;;;;;;80.23;72.63;;;;;;;;;;5094147;28;20448;-73
2023/10/13 01:31:12;;;;;;;85.33;77.13;;;;;;;;;;5093706;28;20444;-74
2023/10/13 01:33:39;;;;;;;79.63;72.20;;;;;;;;;;5094309;28;20422;-74
2023/10/13 01:36:10;;;;;;;80.63;72.57;;;;;;;;;;5093452;28;20416;-74
2023/10/13 01:38:41;;;;;;;81.80;73.87;;;;;;;;;;5093260;28;20474;-73
2023/10/13 01:41:08;;;;;;;80.43;73.20;;;;;;;;;;5093172;28;20538;-74
2023/10/13 01:43:35;;;;;;;81.93;74.67;;;;;;;;;;5093649;28;20989;-74
2023/10/13 01:46:03;;;;;;;86.00;77.67;;;;;;;;;;5093122;28;20859;-73
2023/10/13 01:48:32;;;;;;;79.97;72.83;;;;;;;;;;5093768;28;20411;-74
2023/10/13 01:51:00;;;;;;;79.80;71.90;;;;;;;;;;5093071;28;20443;-74
2023/10/13 01:53:28;;;;;;;81.13;73.20;;;;;;;;;;5093588;28;20491;-74
2023/10/13 01:55:57;;;;;;;76.00;69.30;;;;;;;;;;5093048;28;20441;-74
2023/10/13 01:58:26;;;;;;;80.53;73.03;;;;;;;;;;5093818;28;20951;-73
2023/10/13 02:00:52;;;;;;;79.50;72.13;;;;;;;;;;5093188;28;20457;-73
2023/10/13 02:03:21;;;;;;;77.60;70.90;;;;;;;;;;5093577;28;20480;-74
2023/10/13 02:05:48;;;;;;;75.53;68.33;;;;;;;;;;5092957;28;20848;-74
2023/10/13 02:08:22;;;;;;;79.80;72.20;;;;;;;;;;5093481;28;20443;-74
2023/10/13 02:10:49;;;;;;;76.53;69.70;;;;;;;;;;5093003;28;20466;-74
2023/10/13 02:13:18;;;;;;;77.63;70.67;;;;;;;;;;5093474;28;20551;-73
2023/10/13 02:15:44;;;;;;;83.27;75.47;;;;;;;;;;5092620;28;20454;-74
2023/10/13 02:18:12;;;;;;;70.30;64.00;;;;;;;;;;5093202;28;20472;-74
2023/10/13 02:20:44;;;;;;;82.30;74.80;;;;;;;;;;5092895;28;20449;-74
2023/10/13 02:23:11;;;;;;;78.03;70.80;;;;;;;;;;5092943;28;20772;-74
2023/10/13 02:25:42;;;;;;;80.37;72.80;;;;;;;;;;5092578;28;20536;-73
2023/10/13 02:28:13;;;;;;;79.83;72.80;;;;;;;;;;5093040;28;20439;-74
2023/10/13 02:30:44;;;;;;;82.30;74.90;;;;;;;;;;5093095;28;20559;-74
2023/10/13 02:33:11;;;;;;;79.27;70.77;;;;;;;;;;5092039;28;20473;-74
2023/10/13 02:38:46;;;;;;;73.63;66.83;;;;;;;;;;5023587;28;20538;-74
2023/10/13 02:41:18;;;;;;;80.00;72.40;;;;;;;;;;5092422;28;20741;-74
2023/10/13 02:43:46;;;;;;;75.80;68.93;;;;;;;;;;5091894;28;20910;-74
2023/10/13 02:46:15;;;;;;;76.53;69.63;;;;;;;;;;5092724;28;20445;-74
2023/10/13 02:48:45;;;;;;;70.47;63.87;;;;;;;;;;5092459;28;20480;-74
2023/10/13 02:51:15;;;;;;;72.00;65.33;;;;;;;;;;5092445;28;20441;-73
2023/10/13 02:53:46;;;;;;;75.20;68.50;;;;;;;;;;5091883;28;20463;-74
2023/10/13 02:56:13;;;;;;;70.83;65.03;;;;;;;;;;5092404;28;20453;-73
2023/10/13 02:58:43;;;;;;;70.73;64.60;;;;;;;;;;5092553;28;20448;-74
2023/10/13 03:01:16;;;;;;;77.90;71.30;;;;;;;;;;5092410;28;20501;-74
2023/10/13 03:03:49;;;;;;;72.10;65.40;;;;;;;;;;5091569;28;20514;-74
2023/10/13 03:06:15;;;;;;;70.77;63.67;;;;;;;;;;5092303;28;20467;-74
2023/10/13 03:08:43;;;;;;;76.23;69.57;;;;;;;;;;5092439;28;20447;-73
2023/10/13 03:11:10;;;;;;;80.03;73.13;;;;;;;;;;5092339;28;20476;-74
2023/10/13 03:13:37;;;;;;;75.37;68.93;;;;;;;;;;5091903;28;20457;-74
2023/10/13 03:16:12;;;;;;;75.17;68.73;;;;;;;;;;5091767;28;20444;-74
2023/10/13 03:18:38;;;;;;;75.63;69.00;;;;;;;;;;5091931;28;20479;-74
2023/10/13 03:21:07;;;;;;;76.07;69.93;;;;;;;;;;5092149;28;20420;-74
2023/10/13 03:23:45;;;;;;;78.60;72.23;;;;;;;;;;5091621;28;20493;-74
2023/10/13 03:26:16;;;;;;;69.87;63.77;;;;;;;;;;5092066;28;20428;-73
2023/10/13 03:28:44;;;;;;;68.87;63.30;;;;;;;;;;5092050;28;20435;-74
2023/10/13 03:31:17;;;;;;;70.33;64.63;;;;;;;;;;5092010;28;20534;-74
2023/10/13 03:33:46;;;;;;;70.30;64.40;;;;;;;;;;5091080;28;21038;-74
2023/10/13 03:36:46;;;;;;;74.17;67.83;;;;;;;;;;5091529;28;20449;-74
2023/10/13 03:39:07;;;;;;;73.30;67.20;;;;;;;;;;5091364;28;20445;-74
2023/10/13 03:41:37;;;;;;;74.33;68.27;;;;;;;;;;5091627;28;20780;-74
2023/10/13 03:44:12;;;;;;;73.07;66.90;;;;;;;;;;5090660;28;20484;-74
2023/10/13 03:46:41;;;;;;;71.33;65.13;;;;;;;;;;5091506;28;20471;-74
2023/10/13 03:49:12;;;;;;;75.53;68.77;;;;;;;;;;5091925;28;20452;-74
2023/10/13 03:51:41;;;;;;;74.80;68.70;;;;;;;;;;5091966;28;20433;-74
2023/10/13 03:54:08;;;;;;;69.77;64.07;;;;;;;;;;5090497;28;20476;-74
2023/10/13 03:56:39;;;;;;;72.40;66.13;;;;;;;;;;5091451;28;20872;-74
2023/10/13 03:59:09;;;;;;;68.57;62.57;;;;;;;;;;5091413;28;20430;-74
2023/10/13 04:01:45;;;;;;;68.57;62.73;;;;;;;;;;5090619;28;20933;-74
2023/10/13 04:04:14;;;;;;;65.90;60.27;;;;;;;;;;5090324;28;20555;-74
2023/10/13 04:06:54;;;;;;;66.97;61.33;;;;;;;;;;5091481;28;20469;-74
2023/10/13 04:13:49;;;;;;;65.60;60.20;;;;;;;;;;5059557;28;20437;-73
2023/10/13 04:15:23;;;;;;;63.73;58.40;;;;;;;;;;5089984;28;20468;-74
2023/10/13 04:17:50;;;;;;;63.23;57.73;;;;;;;;;;5091374;28;20463;-73
2023/10/13 04:20:38;;;;;;;63.30;57.93;;;;;;;;;;5091339;28;20455;-74
2023/10/13 04:23:19;;;;;;;65.10;59.20;;;;;;;;;;5091292;28;20491;-74
2023/10/13 04:28:39;;;;;;;63.63;57.87;;;;;;;;;;5091151;28;20917;-74
2023/10/13 04:31:11;;;;;;;64.90;59.37;;;;;;;;;;5091269;28;20415;-73
2023/10/13 04:33:51;;;;;;;65.17;59.73;;;;;;;;;;5091057;28;20492;-73
2023/10/13 04:36:22;;;;;;;65.67;60.40;;;;;;;;;;5090626;28;20464;-73
2023/10/13 04:38:59;;;;;;;64.77;59.40;;;;;;;;;;5091208;28;20437;-74
2023/10/13 04:41:31;;;;;;;66.47;61.27;;;;;;;;;;5090895;28;20478;-74
2023/10/13 04:44:04;;;;;;;62.27;57.17;;;;;;;;;;5090510;28;20490;-74
2023/10/13 04:46:54;;;;;;;67.43;61.60;;;;;;;;;;5090665;28;20467;-74
2023/10/13 04:49:28;;;;;;;66.03;60.00;;;;;;;;;;5091085;28;20510;-74
2023/10/13 04:52:06;;;;;;;58.43;54.00;;;;;;;;;;5091311;28;20483;-74
2023/10/13 04:54:45;;;;;;;60.07;54.93;;;;;;;;;;5090664;28;20424;-74
2023/10/13 04:57:25;;;;;;;62.57;57.13;;;;;;;;;;5090272;28;20481;-74
2023/10/13 05:03:17;;;;;;;67.23;60.53;;;;;;;;;;5091069;28;20931;-73
2023/10/13 05:06:10;;;;;;;62.83;57.07;;;;;;;;;;5090112;28;20440;-74
2023/10/13 05:44:52;;;;;;;73.13;66.37;;;;;;;;;;5093154;28;20475;-73
2023/10/13 05:50:13;;;;;;;68.97;62.27;;;;;;;;;;5093316;28;20485;-73
2023/10/13 06:28:42;;;;;;;65.17;59.03;;;;;;;;;;5093084;28;20416;-74
2023/10/13 06:31:14;;;;;;;59.53;54.03;;;;;;;;;;5093246;28;20457;-73
2023/10/13 06:33:45;;;;;;;62.57;56.33;;;;;;;;;;5092315;28;20821;-73
2023/10/13 06:36:12;;;;;;;64.00;57.90;;;;;;;;;;5093008;28;20441;-74
2023/10/13 06:38:39;;;;;;;64.20;57.83;;;;;;;;;;5092936;28;20448;-74
2023/10/13 06:41:06;;;;;;;61.53;56.13;;;;;;;;;;5092624;28;20427;-74
2023/10/13 06:43:39;;;;;;;56.97;51.97;;;;;;;;;;5092939;28;20883;-73
2023/10/13 06:46:07;;;;;;;60.30;54.93;;;;;;;;;;5092553;28;20437;-74
2023/10/13 06:48:34;;;;;;;57.50;52.00;;;;;;;;;;5092255;28;20526;-73
2023/10/13 06:51:17;;;;;;;59.93;54.73;;;;;;;;;;5092696;28;20525;-74
2023/10/13 06:53:46;;;;;;;52.90;48.70;;;;;;;;;;5092359;28;20432;-74
2023/10/13 06:56:16;;;;;;;55.90;51.00;;;;;;;;;;5092546;28;20781;-73
2023/10/13 06:58:46;;;;;;;56.97;52.13;;;;;;;;;;5091931;28;20468;-74
2023/10/13 07:01:16;;;;;;;56.90;52.27;;;;;;;;;;5092106;28;21006;-74
2023/10/13 07:03:44;;;;;;;54.83;50.67;;;;;;;;;;5092192;28;20548;-74
2023/10/13 07:06:18;;;;;;;50.37;46.73;;;;;;;;;;5091818;28;20475;-73
2023/10/13 07:08:51;;;;;;;54.90;50.00;;;;;;;;;;5091629;28;20450;-73
2023/10/13 07:11:31;;;;;;;54.60;50.30;;;;;;;;;;5092321;28;20433;-74
2023/10/13 07:13:58;;;;;;;54.97;50.50;;;;;;;;;;5091853;28;20426;-74
2023/10/13 07:16:35;;;;;;;58.30;53.80;;;;;;;;;;5092150;28;20565;-74
2023/10/13 07:19:05;;;;;;;59.37;54.27;;;;;;;;;;5092385;28;20447;-74
2023/10/13 07:21:33;;;;;;;47.40;43.90;;;;;;;;;;5091578;28;20615;-75
2023/10/13 07:24:11;;;;;;;51.37;47.07;;;;;;;;;;5091518;28;20512;-75
2023/10/13 07:26:42;;;;;;;55.80;50.90;;;;;;;;;;5092137;28;20465;-75
2023/10/13 07:29:09;;;;;;;51.23;47.43;;;;;;;;;;5091969;28;20840;-74
2023/10/13 07:31:37;;;;;;;49.30;45.80;;;;;;;;;;5091408;28;20431;-74
2023/10/13 07:34:12;;;;;;;50.40;46.50;;;;;;;;;;5091068;28;20900;-75
2023/10/13 07:36:43;;;;;;;51.13;46.43;;;;;;;;;;5089823;28;20476;-75
2023/10/13 07:39:21;;;;;;;46.00;42.73;;;;;;;;;;5092077;28;20435;-74
2023/10/13 07:41:51;;;;;;;48.43;44.57;;;;;;;;;;5091578;28;21014;-75
2023/10/13 07:44:19;;;;;;;47.13;43.43;;;;;;;;;;5090741;28;20940;-74
2023/10/13 07:46:49;;;;;;;47.20;42.87;;;;;;;;;;5091507;28;20519;-75
2023/10/13 07:49:16;;;;;;;46.73;43.13;;;;;;;;;;5091609;28;20840;-75
2023/10/13 07:51:45;;;;;;;43.27;40.27;;;;;;;;;;5091108;28;20513;-74
2023/10/13 07:54:13;;;;;;;42.27;39.07;;;;;;;;;;5091019;28;20847;-75
2023/10/13 07:56:40;;;;;;;40.23;37.37;;;;;;;;;;5091523;28;20476;-75
2023/10/13 07:59:09;;;;;;;44.80;41.30;;;;;;;;;;5091878;28;20440;-74
2023/10/13 08:01:42;;;;;;;40.57;37.37;;;;;;;;;;5091009;28;20956;-75
2023/10/13 08:04:11;;;;;;;42.97;39.50;;;;;;;;;;5091023;28;20570;-76
2023/10/13 08:06:40;;;;;;;44.17;40.93;;;;;;;;;;5091305;28;20503;-75
2023/10/13 08:09:09;;;;;;;43.70;40.60;;;;;;;;;;5091442;28;20453;-75
2023/10/13 08:11:38;;;;;;;42.97;39.37;;;;;;;;;;5090756;28;20469;-74
2023/10/13 08:14:22;;;;;;;47.50;44.00;;;;;;;;;;5090618;28;20896;-75
2023/10/13 08:16:57;;;;;;;44.93;42.03;;;;;;;;;;5091459;28;20571;-75
2023/10/13 08:19:27;;;;;;;42.67;38.83;;;;;;;;;;5090116;28;20469;-75
2023/10/13 08:21:57;;;;;;;41.33;37.80;;;;;;;;;;5091439;28;20518;-75
2023/10/13 08:24:29;;;;;;;39.77;36.60;;;;;;;;;;5090571;28;21007;-75
2023/10/13 08:32:54;;;;;;;39.07;36.47;;;;;;;;;;5054536;28;20898;-75
2023/10/13 08:35:33;;;;;;;39.20;36.10;;;;;;;;;;5090818;28;20443;-74
2023/10/13 08:38:04;;;;;;;40.00;37.27;;;;;;;;;;5091024;28;20499;-75
2023/10/13 08:41:25;;;;;;;39.70;36.70;;;;;;;;;;5090456;28;20461;-76
2023/10/13 08:43:43;;;;;;;37.97;35.23;;;;;;;;;;5090651;28;20416;-75
2023/10/13 08:46:24;;;;;;;36.10;33.60;;;;;;;;;;5090690;28;20433;-75
2023/10/13 08:48:52;;;;;;;35.93;33.27;;;;;;;;;;5092681;28;20868;-75
2023/10/13 08:51:35;;;;;;;33.57;31.10;;;;;;;;;;5094146;28;20464;-75
2023/10/13 08:54:18;;;;;;;31.93;29.83;;;;;;;;;;5094441;28;20403;-75
2023/10/13 08:56:47;;;;;;;33.83;31.33;;;;;;;;;;5094955;28;20460;-74
2023/10/13 08:59:22;;;;;;;32.30;29.93;;;;;;;;;;5095191;28;20808;-75
2023/10/13 09:01:59;;;;;;;29.77;27.50;;;;;;;;;;5094364;28;20574;-75
2023/10/13 09:04:27;;;;;;;31.90;29.60;;;;;;;;;;5094426;28;20475;-75
2023/10/13 09:07:08;;;;;;;32.07;29.73;;;;;;;;;;5094774;28;20454;-75
2023/10/13 09:12:39;;;;;;;30.73;28.63;;;;;;;;;;5091067;28;20525;-75
2023/10/13 09:15:17;;;;;;;30.27;28.37;;;;;;;;;;5094320;28;20467;-75
2023/10/13 09:17:48;;;;;;;27.83;25.80;;;;;;;;;;5094919;28;20460;-74
2023/10/13 09:20:32;;;;;;;26.87;24.93;;;;;;;;;;5094609;28;20440;-75
2023/10/13 09:23:08;;;;;;;28.27;26.10;;;;;;;;;;5094174;28;20452;-76
2023/10/13 09:25:36;;;;;;;26.50;24.60;;;;;;;;;;5093844;28;20487;-75
2023/10/13 09:28:14;;;;;;;26.43;24.73;;;;;;;;;;5093434;28;20496;-75
2023/10/13 09:30:45;;;;;;;27.30;25.27;;;;;;;;;;5093843;28;20459;-75
2023/10/13 09:33:15;;;;;;;27.17;25.17;;;;;;;;;;5094348;28;20456;-75
2023/10/13 09:35:48;;;;;;;26.53;24.53;;;;;;;;;;5093555;28;20831;-75
2023/10/13 09:38:15;;;;;;;27.50;25.40;;;;;;;;;;5093555;28;20796;-75
2023/10/13 09:40:49;;;;;;;27.97;25.70;;;;;;;;;;5093963;28;20490;-75
2023/10/13 09:43:19;;;;;;;26.83;25.00;;;;;;;;;;5094089;28;20415;-75
2023/10/13 09:46:01;;;;;;;28.40;26.57;;;;;;;;;;5093590;28;20477;-75
2023/10/13 09:48:32;;;;;;;27.30;25.20;;;;;;;;;;5093355;28;20439;-74
2023/10/13 09:51:00;;;;;;;26.00;24.10;;;;;;;;;;5094162;28;20807;-75
2023/10/13 09:53:26;;;;;;;27.83;25.87;;;;;;;;;;5093638;28;20449;-75
2023/10/13 09:56:00;;;;;;;26.67;24.73;;;;;;;;;;5093139;28;20445;-75
2023/10/13 09:58:36;;;;;;;26.07;24.37;;;;;;;;;;5093765;28;20449;-74
2023/10/13 10:01:09;;;;;;;26.93;25.07;;;;;;;;;;5091994;28;20465;-75
2023/10/13 10:03:50;;;;;;;24.03;22.63;;;;;;;;;;5093515;28;20952;-75
2023/10/13 10:06:27;;;;;;;25.20;23.40;;;;;;;;;;5092731;28;20886;-76
2023/10/13 10:09:11;;;;;;;28.20;26.23;;;;;;;;;;5093447;28;20915;-75
2023/10/13 10:12:00;;;;;;;25.10;23.60;;;;;;;;;;5093331;28;20450;-75
2023/10/13 10:14:37;;;;;;;26.10;24.37;;;;;;;;;;5093071;28;20808;-75
2023/10/13 10:17:09;;;;;;;24.77;23.07;;;;;;;;;;5093150;28;20476;-75
2023/10/13 10:19:47;;;;;;;27.00;25.10;;;;;;;;;;5093386;28;20460;-75
2023/10/13 10:22:17;;;;;;;24.93;22.93;;;;;;;;;;5093485;28;20410;-75
2023/10/13 10:24:45;;;;;;;25.23;23.40;;;;;;;;;;5092906;28;20512;-74
2023/10/13 10:27:14;;;;;;;26.20;24.33;;;;;;;;;;5093020;28;20444;-75
2023/10/13 10:29:54;;;;;;;29.03;26.30;;;;;;;;;;5092639;28;20430;-75
2023/10/13 10:32:21;;;;;;;24.90;23.00;;;;;;;;;;5093521;28;20467;-75
2023/10/13 10:34:48;;;;;;;25.93;24.13;;;;;;;;;;5092752;28;20416;-75
2023/10/13 10:37:16;;;;;;;26.63;24.13;;;;;;;;;;5092568;28;20455;-75
2023/10/13 10:39:46;;;;;;;24.47;22.30;;;;;;;;;;5093172;28;20759;-75
2023/10/13 10:42:23;;;;;;;25.37;23.13;;;;;;;;;;5092451;28;20484;-75
2023/10/13 10:44:58;;;;;;;24.40;22.30;;;;;;;;;;5092066;28;20991;-75
2023/10/13 10:47:33;;;;;;;24.17;22.27;;;;;;;;;;5092329;28;20507;-75
2023/10/13 10:50:07;;;;;;;25.97;23.27;;;;;;;;;;5092735;28;20434;-75
2023/10/13 10:52:37;;;;;;;24.00;22.20;;;;;;;;;;5092835;28;20511;-75
2023/10/13 10:55:07;;;;;;;25.90;23.13;;;;;;;;;;5092524;28;20419;-74
2023/10/13 10:57:37;;;;;;;23.67;21.90;;;;;;;;;;5092800;28;20935;-75
2023/10/13 11:00:14;;;;;;;25.87;23.37;;;;;;;;;;5091961;28;20589;-74
2023/10/13 11:02:41;;;;;;;21.03;19.53;;;;;;;;;;5092687;28;20444;-75
2023/10/13 11:05:09;;;;;;;23.93;21.83;;;;;;;;;;5092195;28;20489;-75
2023/10/13 11:07:36;;;;;;;22.83;20.87;;;;;;;;;;5092443;28;20464;-75
2023/10/13 11:10:17;;;;;;;23.40;21.40;;;;;;;;;;5092015;28;20439;-75
2023/10/13 11:12:54;;;;;;;22.87;20.87;;;;;;;;;;5091947;28;20459;-75
2023/10/13 11:15:33;;;;;;;24.23;22.27;;;;;;;;;;5091988;28;20805;-75
2023/10/13 11:18:00;;;;;;;24.03;21.77;;;;;;;;;;5092438;28;20825;-76
2023/10/13 11:20:33;;;;;;;22.50;20.57;;;;;;;;;;5092177;28;20476;-74
2023/10/13 11:23:04;;;;;;;24.50;21.87;;;;;;;;;;5092242;28;20531;-75
2023/10/13 11:25:34;;;;;;;20.23;18.93;;;;;;;;;;5091454;28;20477;-75
2023/10/13 11:28:17;;;;;;;20.70;19.13;;;;;;;;;;5091875;28;20557;-75
2023/10/13 11:30:49;;;;;;;23.37;20.90;;;;;;;;;;5091328;28;21034;-75
2023/10/13 11:33:19;;;;;;;24.17;22.10;;;;;;;;;;5091830;28;20507;-75
2023/10/13 11:35:56;;;;;;;22.60;20.80;;;;;;;;;;5091683;28;20498;-75
2023/10/13 11:38:27;;;;;;;25.00;23.20;;;;;;;;;;5091776;28;20810;-75
2023/10/13 11:41:08;;;;;;;22.83;20.83;;;;;;;;;;5091501;28;20447;-75
2023/10/13 11:43:46;;;;;;;22.43;20.63;;;;;;;;;;5091935;28;20955;-75
2023/10/13 11:46:15;;;;;;;23.47;21.47;;;;;;;;;;5091691;28;20459;-75
2023/10/13 11:48:42;;;;;;;22.10;20.20;;;;;;;;;;5091970;28;20461;-75
2023/10/13 11:51:17;;;;;;;22.13;20.03;;;;;;;;;;5091376;28;20461;-75
2023/10/13 11:53:44;;;;;;;22.27;20.73;;;;;;;;;;5091580;28;20498;-75
2023/10/13 11:56:11;;;;;;;22.87;21.10;;;;;;;;;;5091558;28;20443;-75
2023/10/13 11:58:38;;;;;;;23.23;21.40;;;;;;;;;;5091596;28;20818;-75
2023/10/13 12:01:20;;;;;;;25.87;23.57;;;;;;;;;;5091254;28;20534;-74
2023/10/13 12:06:46;;;;;;;23.00;21.27;;;;;;;;;;5091686;28;20478;-75
2023/10/13 12:09:41;;;;;;;24.70;22.40;;;;;;;;;;5091804;28;20433;-75
2023/10/13 12:12:04;;;;;;;23.80;21.63;;;;;;;;;;5091169;28;20545;-75
2023/10/13 12:14:37;;;;;;;24.70;22.57;;;;;;;;;;5091404;28;20444;-74
2023/10/13 12:17:10;;;;;;;24.20;22.40;;;;;;;;;;5091502;28;20490;-75
2023/10/13 12:19:39;;;;;;;25.60;23.10;;;;;;;;;;5091497;28;20437;-75
2023/10/13 12:22:08;;;;;;;25.20;23.10;;;;;;;;;;5091731;28;20483;-75
2023/10/13 12:24:42;;;;;;;26.60;24.00;;;;;;;;;;5094023;28;20419;-75
2023/10/13 12:27:19;;;;;;;25.53;23.20;;;;;;;;;;5095068;28;20461;-75
2023/10/13 12:29:47;;;;;;;25.23;23.07;;;;;;;;;;5094944;28;20468;-75
2023/10/13 12:32:14;;;;;;;25.47;23.37;;;;;;;;;;5095734;28;20441;-74
2023/10/13 12:35:00;;;;;;;26.10;23.40;;;;;;;;;;5094926;28;20809;-75
2023/10/13 12:37:50;;;;;;;25.23;23.07;;;;;;;;;;5095892;28;20560;-75
2023/10/13 12:54:06;;;;;;;23.60;22.00;;;;;;;;;;5093810;28;20439;-75
2023/10/13 12:56:34;;;;;;;25.40;23.00;;;;;;;;;;5095312;28;20460;-74
2023/10/13 12:59:08;;;;;;;25.50;23.50;;;;;;;;;;5094646;28;20448;-75
2023/10/13 13:01:41;;;;;;;25.30;23.30;;;;;;;;;;5095399;28;20420;-75
2023/10/13 13:04:12;;;;;;;26.23;23.43;;;;;;;;;;5094760;28;20448;-75
2023/10/13 13:06:40;;;;;;;25.43;22.57;;;;;;;;;;5095068;28;20489;-75
2023/10/13 13:09:09;;;;;;;25.93;23.30;;;;;;;;;;5094779;28;21024;-75
2023/10/13 13:11:39;;;;;;;26.03;23.90;;;;;;;;;;5094507;28;20576;-75
2023/10/13 13:14:08;;;;;;;24.60;22.70;;;;;;;;;;5094073;28;20931;-75
2023/10/13 13:16:35;;;;;;;24.97;22.97;;;;;;;;;;5094887;28;20514;-75
2023/10/13 13:19:09;;;;;;;25.60;23.10;;;;;;;;;;5094904;28;20472;-75
2023/10/13 13:21:37;;;;;;;25.60;23.63;;;;;;;;;;5093982;28;20936;-74
2023/10/13 13:24:10;;;;;;;26.63;24.40;;;;;;;;;;5094210;28;20531;-75
2023/10/13 13:26:40;;;;;;;25.67;23.27;;;;;;;;;;5094623;28;20579;-75
2023/10/13 13:29:09;;;;;;;26.53;24.53;;;;;;;;;;5094424;28;20945;-75
2023/10/13 13:31:40;;;;;;;26.53;24.10;;;;;;;;;;5093989;28;20537;-75
2023/10/13 13:34:09;;;;;;;25.50;23.37;;;;;;;;;;5094132;28;20433;-75
2023/10/13 13:36:36;;;;;;;25.40;23.20;;;;;;;;;;5094294;28;20504;-75
2023/10/13 13:39:04;;;;;;;25.03;23.10;;;;;;;;;;5094311;28;20518;-75
2023/10/13 13:41:33;;;;;;;26.10;23.97;;;;;;;;;;5093807;28;20464;-75
2023/10/13 13:44:13;;;;;;;26.13;24.00;;;;;;;;;;5093687;28;20445;-75
2023/10/13 13:46:42;;;;;;;24.53;22.73;;;;;;;;;;5093972;28;20451;-75
2023/10/13 13:49:17;;;;;;;27.07;24.43;;;;;;;;;;5094333;28;20452;-75
2023/10/13 13:51:51;;;;;;;27.97;25.27;;;;;;;;;;5094254;28;20912;-74
2023/10/13 13:54:18;;;;;;;28.07;25.53;;;;;;;;;;5093615;28;20460;-75
2023/10/13 13:56:46;;;;;;;26.03;24.00;;;;;;;;;;5093467;28;20473;-75
2023/10/13 13:59:15;;;;;;;26.03;23.80;;;;;;;;;;5093705;28;20460;-75
2023/10/13 14:01:44;;;;;;;27.23;24.87;;;;;;;;;;5094097;28;20481;-75
2023/10/13 14:04:11;;;;;;;28.37;25.87;;;;;;;;;;5093411;28;20555;-75
2023/10/13 14:06:38;;;;;;;26.87;24.17;;;;;;;;;;5093940;28;20484;-75
2023/10/13 14:09:14;;;;;;;25.83;23.53;;;;;;;;;;5092625;28;20838;-75
2023/10/13 14:14:47;;;;;;;24.77;22.73;;;;;;;;;;5030313;28;20443;-75
2023/10/13 14:17:14;;;;;;;26.27;24.13;;;;;;;;;;5081375;28;20473;-75
2023/10/13 14:19:42;;;;;;;28.20;25.40;;;;;;;;;;5093886;28;20433;-75
2023/10/13 14:22:12;;;;;;;25.90;24.00;;;;;;;;;;5093277;28;20921;-75
2023/10/13 14:24:43;;;;;;;25.90;23.67;;;;;;;;;;5092835;28;20481;-75
2023/10/13 14:27:12;;;;;;;26.70;24.47;;;;;;;;;;5092583;28;20600;-75
2023/10/13 14:29:42;;;;;;;26.83;24.33;;;;;;;;;;5093728;28;20453;-75
2023/10/13 14:32:12;;;;;;;27.53;24.87;;;;;;;;;;5093558;28;20808;-75
2023/10/13 14:34:39;;;;;;;25.70;23.70;;;;;;;;;;5092975;28;20480;-75
2023/10/13 14:37:06;;;;;;;26.87;24.37;;;;;;;;;;5093027;28;20452;-75
2023/10/13 14:39:34;;;;;;;25.63;23.73;;;;;;;;;;5092383;28;20448;-75
2023/10/13 14:42:02;;;;;;;25.27;22.93;;;;;;;;;;5092925;28;20453;-75
2023/10/13 14:44:29;;;;;;;25.03;22.83;;;;;;;;;;5092041;28;20461;-74
2023/10/13 14:46:57;;;;;;;27.23;25.00;;;;;;;;;;5092726;28;20588;-74
2023/10/13 14:49:24;;;;;;;26.33;24.03;;;;;;;;;;5092977;28;20419;-74
2023/10/13 14:51:54;;;;;;;27.10;24.70;;;;;;;;;;5093216;28;20441;-75
2023/10/13 14:54:32;;;;;;;25.57;23.60;;;;;;;;;;5091803;28;20460;-75
2023/10/13 14:56:59;;;;;;;26.73;24.40;;;;;;;;;;5092967;28;20483;-75
2023/10/13 14:59:26;;;;;;;25.50;23.27;;;;;;;;;;5092858;28;21082;-75
2023/10/13 15:01:54;;;;;;;27.57;24.93;;;;;;;;;;5092434;28;20980;-75
2023/10/13 15:04:24;;;;;;;26.77;24.13;;;;;;;;;;5092559;28;20448;-75
2023/10/13 15:06:52;;;;;;;27.27;24.77;;;;;;;;;;5092030;28;20569;-75
2023/10/13 15:09:23;;;;;;;26.40;23.60;;;;;;;;;;5092715;28;20945;-75
2023/10/13 15:11:53;;;;;;;27.73;24.70;;;;;;;;;;5091191;28;20905;-76
2023/10/13 15:14:22;;;;;;;27.47;24.70;;;;;;;;;;5091933;28;20414;-76
2023/10/13 15:16:49;;;;;;;27.83;24.70;;;;;;;;;;5092983;28;20500;-75
2023/10/13 15:19:17;;;;;;;27.73;25.33;;;;;;;;;;5092181;28;20803;-74
2023/10/13 15:21:49;;;;;;;24.90;22.90;;;;;;;;;;5092807;28;20540;-74
2023/10/13 15:24:16;;;;;;;24.77;22.73;;;;;;;;;;5091882;28;20455;-74
2023/10/13 15:26:47;;;;;;;25.47;23.57;;;;;;;;;;5092243;28;20488;-74
2023/10/13 15:29:16;;;;;;;26.93;24.63;;;;;;;;;;5091846;28;21289;-74
2023/10/13 15:31:54;;;;;;;26.03;23.57;;;;;;;;;;5092653;28;20872;-74
2023/10/13 15:34:23;;;;;;;26.80;24.30;;;;;;;;;;5091760;28;20897;-74
2023/10/13 15:36:54;;;;;;;27.73;25.17;;;;;;;;;;5092316;28;20519;-74
2023/10/13 15:39:23;;;;;;;25.50;23.70;;;;;;;;;;5091599;28;20476;-74
2023/10/13 15:41:52;;;;;;;26.70;24.00;;;;;;;;;;5092079;28;20949;-74
2023/10/13 15:44:20;;;;;;;26.10;23.53;;;;;;;;;;5091716;28;20448;-74
2023/10/13 15:46:49;;;;;;;26.70;24.50;;;;;;;;;;5092154;28;20579;-74
2023/10/13 15:49:16;;;;;;;27.23;24.70;;;;;;;;;;5090680;28;20456;-75
2023/10/13 15:51:43;;;;;;;27.67;24.87;;;;;;;;;;5092170;28;20436;-74
2023/10/13 15:54:15;;;;;;;28.50;25.60;;;;;;;;;;5090980;28;20461;-74
2023/10/13 15:56:43;;;;;;;26.43;24.17;;;;;;;;;;5092125;28;20556;-74
2023/10/13 15:59:10;;;;;;;25.53;23.50;;;;;;;;;;5091182;28;21004;-74
2023/10/13 16:01:38;;;;;;;24.90;22.53;;;;;;;;;;5090966;28;20448;-74
2023/10/13 16:04:10;;;;;;;27.50;25.07;;;;;;;;;;5090600;28;21064;-74
2023/10/13 16:06:37;;;;;;;27.00;24.83;;;;;;;;;;5091814;28;20567;-74
2023/10/13 16:09:06;;;;;;;26.50;23.90;;;;;;;;;;5091730;28;20419;-74
2023/10/13 16:11:35;;;;;;;25.27;23.00;;;;;;;;;;5091370;28;20459;-74
2023/10/13 16:14:10;;;;;;;26.50;23.90;;;;;;;;;;5090811;28;20501;-74
2023/10/13 16:16:37;;;;;;;26.83;24.00;;;;;;;;;;5091331;28;20471;-74
2023/10/13 16:19:05;;;;;;;26.70;23.67;;;;;;;;;;5091941;28;20441;-74
2023/10/13 16:21:33;;;;;;;26.60;24.27;;;;;;;;;;5091543;28;20860;-74
2023/10/13 16:24:00;;;;;;;27.63;24.80;;;;;;;;;;5091167;28;20419;-74
2023/10/13 16:26:30;;;;;;;30.70;24.97;;;;;;;;;;5090836;28;20471;-75
2023/10/13 16:28:58;;;;;;;27.33;24.50;;;;;;;;;;5091373;28;20453;-74
2023/10/13 16:31:27;;;;;;;24.87;22.83;;;;;;;;;;5091543;28;20440;-74
2023/10/13 16:33:55;;;;;;;25.23;23.23;;;;;;;;;;5090615;28;20445;-74
2023/10/13 16:36:22;;;;;;;26.43;24.30;;;;;;;;;;5091276;28;20577;-74